Airfield :
LOGIN :

Register | Disclaimer

   EN    FR    IT 

 










Legend :    VFR   Marginal VFR   IFR   Intensive IFR   Very Intensive IFR
Visi :
Ceiling :
>= 8 km
>= 3000ft
5 to 8 km
1000 to 3000 ft
1500m to 5 km
500 to 1000 ft
800 to 1500m
200 to 500 ft
< 800m
< 200 ft
Symbols :   Thunderstorms  Fog  Heavy snow  Heavy precipitations  Wind > 20 kt
SIGMETs :     Misc.  Thunderstorms  Icing  Turbulence  Mountain Waves  Volcanic Ashes






- Airport Elevation : 13 ft
- IATA code : LYX


EGMD - Lydd

CURRENT METAR :
  • 112350Z AUTO 28005KT 9999 NCD 02/01 Q1004

EXPIRED METARs :
  • 112320Z AUTO 27007KT 9999 NCD 02/02 Q1004
  • 112250Z AUTO 27008KT 9999 NCD 03/02 Q1004
  • 112220Z AUTO 27009KT 9999 NCD 04/03 Q1004
  • 112150Z AUTO 27008KT 9999 NCD 04/03 Q1003

TAF TAF EGMD
Valid from the 12 at 00:00 until the 12 at 09:00 UTC


112303Z 1200/1209 27008KT 9999 FEW025
PROB40
TEMPO 1201/1206 8000
BECMG 1206/1209 20010KT
PROB40
TEMPO 1207/1209 6000 RA BKN014
ATIS : +44 1797 322 422



MET'MAP, your aeronautical weather chart ! - Copyright ORBIFLY December 2007 - Disclaimer

ORBIFLY MET'MAP TEAM :

Programming & Development : Alexandra Zaïnal
Concept & original design : Baudouin d'Aumeries
Assistance for programming : Marc-Olivier Méhu
Technical & hardware support : Manuel Goepfert

Contact : metmap@orbifly.com




SOURCES & CREDITS :

   NOAA